sensor_id;sensor_type;location;lat;lon;timestamp;pressure;altitude;pressure_sealevel;temperature;humidity
60055;BME280;45930;53.514;55.904;2022-12-18T00:01:00;49956.03;;;-149.77;100.00
60055;BME280;45930;53.514;55.904;2022-12-18T00:02:03;49960.00;;;-149.77;100.00
60055;BME280;45930;53.514;55.904;2022-12-18T00:03:04;49981.78;;;-149.77;99.12
60055;BME280;45930;53.514;55.904;2022-12-18T00:04:06;49965.94;;;-149.77;98.27
60055;BME280;45930;53.514;55.904;2022-12-18T00:05:08;49952.06;;;-149.77;98.08
60055;BME280;45930;53.514;55.904;2022-12-18T00:06:09;49987.75;;;-149.77;97.73
60055;BME280;45930;53.514;55.904;2022-12-18T00:07:10;49928.31;;;-149.77;96.78
60055;BME280;45930;53.514;55.904;2022-12-18T00:08:10;49950.09;;;-149.77;96.77
60055;BME280;45930;53.514;55.904;2022-12-18T00:09:11;49948.13;;;-149.77;95.61
60055;BME280;45930;53.514;55.904;2022-12-18T00:10:12;49956.03;;;-149.77;95.35
60055;BME280;45930;53.514;55.904;2022-12-18T00:11:16;49924.34;;;-149.77;94.39
60055;BME280;45930;53.514;55.904;2022-12-18T00:12:17;49950.09;;;-149.77;95.08
60055;BME280;45930;53.514;55.904;2022-12-18T00:13:17;49948.13;;;-149.77;94.77
60055;BME280;45930;53.514;55.904;2022-12-18T00:14:18;49928.31;;;-149.77;94.74
60055;BME280;45930;53.514;55.904;2022-12-18T00:15:19;49946.13;;;-149.77;94.18
60055;BME280;45930;53.514;55.904;2022-12-18T00:16:21;49958.03;;;-149.77;94.32
60055;BME280;45930;53.514;55.904;2022-12-18T00:17:23;49932.25;;;-149.77;93.49
60055;BME280;45930;53.514;55.904;2022-12-18T00:18:23;49940.19;;;-149.77;93.85
60055;BME280;45930;53.514;55.904;2022-12-18T00:19:24;49916.41;;;-149.77;93.51
60055;BME280;45930;53.514;55.904;2022-12-18T00:20:25;49956.03;;;-149.77;93.54
60055;BME280;45930;53.514;55.904;2022-12-18T00:21:29;49965.94;;;-149.77;93.63
60055;BME280;45930;53.514;55.904;2022-12-18T00:22:30;49952.06;;;-149.77;93.11
60055;BME280;45930;53.514;55.904;2022-12-18T00:23:32;49938.22;;;-149.77;92.61
60055;BME280;45930;53.514;55.904;2022-12-18T00:24:33;49944.16;;;-149.77;93.08
60055;BME280;45930;53.514;55.904;2022-12-18T00:25:35;49922.34;;;-149.77;91.63
60055;BME280;45930;53.514;55.904;2022-12-18T00:26:37;49926.31;;;-149.77;92.23
60055;BME280;45930;53.514;55.904;2022-12-18T00:27:38;49930.28;;;-149.77;92.90
60055;BME280;45930;53.514;55.904;2022-12-18T00:28:39;49934.25;;;-149.77;92.89
60055;BME280;45930;53.514;55.904;2022-12-18T00:29:40;49936.22;;;-149.77;93.14
60055;BME280;45930;53.514;55.904;2022-12-18T00:30:40;49946.13;;;-149.77;92.94
60055;BME280;45930;53.514;55.904;2022-12-18T00:31:42;49932.25;;;-149.77;92.32
60055;BME280;45930;53.514;55.904;2022-12-18T00:32:43;49940.19;;;-149.77;92.23
60055;BME280;45930;53.514;55.904;2022-12-18T00:33:44;49954.06;;;-149.77;91.89
60055;BME280;45930;53.514;55.904;2022-12-18T00:34:44;49912.44;;;-149.77;91.06
60055;BME280;45930;53.514;55.904;2022-12-18T00:35:45;49920.38;;;-149.77;90.93
60055;BME280;45930;53.514;55.904;2022-12-18T00:36:47;49908.50;;;-149.77;90.15
60055;BME280;45930;53.514;55.904;2022-12-18T00:37:48;49938.22;;;-149.77;90.17
60055;BME280;45930;53.514;55.904;2022-12-18T00:38:49;49926.31;;;-149.77;90.33
60055;BME280;45930;53.514;55.904;2022-12-18T00:39:49;49904.53;;;-149.77;90.17
60055;BME280;45930;53.514;55.904;2022-12-18T00:40:50;49916.41;;;-149.77;90.22
60055;BME280;45930;53.514;55.904;2022-12-18T00:41:51;49912.44;;;-149.77;90.38
60055;BME280;45930;53.514;55.904;2022-12-18T00:43:10;49924.34;;;-149.77;89.95
60055;BME280;45930;53.514;55.904;2022-12-18T00:44:15;49896.59;;;-149.77;90.05
60055;BME280;45930;53.514;55.904;2022-12-18T00:45:16;49900.56;;;-149.77;90.48
60055;BME280;45930;53.514;55.904;2022-12-18T00:46:17;49918.41;;;-149.77;91.18
60055;BME280;45930;53.514;55.904;2022-12-18T00:47:17;49942.16;;;-149.77;91.79
60055;BME280;45930;53.514;55.904;2022-12-18T00:48:18;49924.34;;;-149.77;91.66
60055;BME280;45930;53.514;55.904;2022-12-18T00:49:20;49940.19;;;-149.77;91.65
60055;BME280;45930;53.514;55.904;2022-12-18T00:50:21;49930.28;;;-149.77;90.24
60055;BME280;45930;53.514;55.904;2022-12-18T00:51:23;49920.38;;;-149.77;91.42
60055;BME280;45930;53.514;55.904;2022-12-18T00:52:24;49906.50;;;-149.77;90.84
60055;BME280;45930;53.514;55.904;2022-12-18T00:53:25;49926.31;;;-149.77;92.54
60055;BME280;45930;53.514;55.904;2022-12-18T00:54:25;49922.34;;;-149.77;92.76
60055;BME280;45930;53.514;55.904;2022-12-18T00:55:26;49904.53;;;-149.77;92.44
60055;BME280;45930;53.514;55.904;2022-12-18T00:56:27;49908.50;;;-149.77;90.65
60055;BME280;45930;53.514;55.904;2022-12-18T00:57:28;49920.38;;;-149.77;90.16
60055;BME280;45930;53.514;55.904;2022-12-18T00:58:28;49922.34;;;-149.77;90.00
60055;BME280;45930;53.514;55.904;2022-12-18T00:59:29;49928.31;;;-149.77;89.33
60055;BME280;45930;53.514;55.904;2022-12-18T01:00:30;49904.53;;;-149.77;88.36
60055;BME280;45930;53.514;55.904;2022-12-18T01:01:31;49918.41;;;-149.77;88.16
60055;BME280;45930;53.514;55.904;2022-12-18T01:02:33;49926.31;;;-149.77;87.16
60055;BME280;45930;53.514;55.904;2022-12-18T01:03:33;49898.59;;;-149.77;86.26
60055;BME280;45930;53.514;55.904;2022-12-18T01:04:34;49896.59;;;-149.77;85.43
60055;BME280;45930;53.514;55.904;2022-12-18T01:05:39;49926.31;;;-149.77;86.35
60055;BME280;45930;53.514;55.904;2022-12-18T01:06:40;49888.69;;;-149.77;86.00
60055;BME280;45930;53.514;55.904;2022-12-18T01:07:41;49884.72;;;-149.77;86.18
60055;BME280;45930;53.514;55.904;2022-12-18T01:08:42;49908.50;;;-149.77;87.18
60055;BME280;45930;53.514;55.904;2022-12-18T01:09:43;49874.81;;;-149.77;86.62
60055;BME280;45930;53.514;55.904;2022-12-18T01:10:44;49872.84;;;-149.77;84.48
60055;BME280;45930;53.514;55.904;2022-12-18T01:11:44;49876.78;;;-149.77;85.44
60055;BME280;45930;53.514;55.904;2022-12-18T01:12:45;49858.97;;;-149.77;83.61
60055;BME280;45930;53.514;55.904;2022-12-18T01:13:46;49866.88;;;-149.77;84.48
60055;BME280;45930;53.514;55.904;2022-12-18T01:14:47;49886.69;;;-149.77;84.91
60055;BME280;45930;53.514;55.904;2022-12-18T01:15:49;49870.84;;;-149.77;85.27
60055;BME280;45930;53.514;55.904;2022-12-18T01:16:50;49898.59;;;-149.77;84.84
60055;BME280;45930;53.514;55.904;2022-12-18T01:17:52;49866.88;;;-149.77;84.41
60055;BME280;45930;53.514;55.904;2022-12-18T01:18:54;49866.88;;;-149.77;83.16
60055;BME280;45930;53.514;55.904;2022-12-18T01:19:54;49892.63;;;-149.77;82.94
60055;BME280;45930;53.514;55.904;2022-12-18T01:20:55;49864.91;;;-149.77;82.31
60055;BME280;45930;53.514;55.904;2022-12-18T01:21:56;49868.88;;;-149.77;81.83
60055;BME280;45930;53.514;55.904;2022-12-18T01:22:57;49853.03;;;-149.77;81.75
60055;BME280;45930;53.514;55.904;2022-12-18T01:23:58;49855.00;;;-149.77;79.63
60055;BME280;45930;53.514;55.904;2022-12-18T01:24:58;49839.16;;;-149.77;79.10
60055;BME280;45930;53.514;55.904;2022-12-18T01:26:07;49860.94;;;-149.77;79.36
60055;BME280;45930;53.514;55.904;2022-12-18T01:27:08;49853.03;;;-149.77;78.89
60055;BME280;45930;53.514;55.904;2022-12-18T01:28:08;49864.91;;;-149.77;78.69
60055;BME280;45930;53.514;55.904;2022-12-18T01:29:09;49835.19;;;-149.77;77.91
60055;BME280;45930;53.514;55.904;2022-12-18T01:30:10;49825.28;;;-149.77;76.70
60055;BME280;45930;53.514;55.904;2022-12-18T01:32:12;49829.25;;;-149.77;77.59
60055;BME280;45930;53.514;55.904;2022-12-18T01:33:12;49819.34;;;-149.77;78.04
60055;BME280;45930;53.514;55.904;2022-12-18T01:34:13;49843.13;;;-149.77;77.98
60055;BME280;45930;53.514;55.904;2022-12-18T01:35:14;49856.97;;;-149.77;77.74
60055;BME280;45930;53.514;55.904;2022-12-18T01:36:21;49821.31;;;-149.77;77.81
60055;BME280;45930;53.514;55.904;2022-12-18T01:37:22;49866.88;;;-149.77;79.05
60055;BME280;45930;53.514;55.904;2022-12-18T01:38:23;49847.06;;;-149.77;79.46
60055;BME280;45930;53.514;55.904;2022-12-18T01:39:24;49835.19;;;-149.77;80.22
60055;BME280;45930;53.514;55.904;2022-12-18T01:40:24;49853.03;;;-149.77;81.20
60055;BME280;45930;53.514;55.904;2022-12-18T01:41:28;49862.94;;;-149.77;81.71
60055;BME280;45930;53.514;55.904;2022-12-18T01:42:51;49856.97;;;-149.77;81.47
60055;BME280;45930;53.514;55.904;2022-12-18T01:43:57;49851.03;;;-149.77;81.97
60055;BME280;45930;53.514;55.904;2022-12-18T01:46:05;49855.00;;;-149.77;83.30
60055;BME280;45930;53.514;55.904;2022-12-18T01:47:06;49843.13;;;-149.77;82.68
60055;BME280;45930;53.514;55.904;2022-12-18T01:48:07;49884.72;;;-149.77;83.42
60055;BME280;45930;53.514;55.904;2022-12-18T01:49:09;49866.88;;;-149.77;84.01
60055;BME280;45930;53.514;55.904;2022-12-18T01:50:19;49872.84;;;-149.77;83.33
60055;BME280;45930;53.514;55.904;2022-12-18T01:51:21;49860.94;;;-149.77;82.89
60055;BME280;45930;53.514;55.904;2022-12-18T01:52:24;49860.94;;;-149.77;83.45
60055;BME280;45930;53.514;55.904;2022-12-18T01:53:26;49853.03;;;-149.77;83.08
60055;BME280;45930;53.514;55.904;2022-12-18T01:54:26;49839.16;;;-149.77;82.92
60055;BME280;45930;53.514;55.904;2022-12-18T01:55:31;49860.94;;;-149.77;82.55
60055;BME280;45930;53.514;55.904;2022-12-18T01:56:32;49855.00;;;-149.77;80.54
60055;BME280;45930;53.514;55.904;2022-12-18T01:57:33;49843.13;;;-149.77;80.13
60055;BME280;45930;53.514;55.904;2022-12-18T01:59:56;49843.13;;;-149.77;80.79
60055;BME280;45930;53.514;55.904;2022-12-18T02:00:59;49851.03;;;-149.77;79.42
60055;BME280;45930;53.514;55.904;2022-12-18T02:02:00;49839.16;;;-149.77;79.97
60055;BME280;45930;53.514;55.904;2022-12-18T02:03:02;49856.97;;;-149.77;80.16
60055;BME280;45930;53.514;55.904;2022-12-18T02:04:25;49833.22;;;-149.77;79.18
60055;BME280;45930;53.514;55.904;2022-12-18T02:06:46;49827.25;;;-149.77;76.09
60055;BME280;45930;53.514;55.904;2022-12-18T02:09:13;49797.56;;;-149.77;73.92
60055;BME280;45930;53.514;55.904;2022-12-18T02:10:30;49803.50;;;-149.77;74.44
60055;BME280;45930;53.514;55.904;2022-12-18T02:12:48;49825.28;;;-149.77;74.64
60055;BME280;45930;53.514;55.904;2022-12-18T02:15:22;49791.59;;;-149.77;74.40
60055;BME280;45930;53.514;55.904;2022-12-18T02:17:58;49777.75;;;-149.77;72.47
60055;BME280;45930;53.514;55.904;2022-12-18T02:20:39;49761.88;;;-149.77;72.64
60055;BME280;45930;53.514;55.904;2022-12-18T02:24:27;49757.94;;;-149.77;71.94
60055;BME280;45930;53.514;55.904;2022-12-18T02:26:43;49781.69;;;-149.77;71.77
60055;BME280;45930;53.514;55.904;2022-12-18T02:27:46;49781.69;;;-149.77;72.90
60055;BME280;45930;53.514;55.904;2022-12-18T02:29:03;49787.66;;;-149.77;72.16
60055;BME280;45930;53.514;55.904;2022-12-18T02:30:07;49779.72;;;-149.77;72.69
60055;BME280;45930;53.514;55.904;2022-12-18T02:31:11;49795.56;;;-149.77;72.37
60055;BME280;45930;53.514;55.904;2022-12-18T02:32:19;49795.56;;;-149.77;72.49
60055;BME280;45930;53.514;55.904;2022-12-18T02:33:22;49787.66;;;-149.77;72.34
60055;BME280;45930;53.514;55.904;2022-12-18T02:34:31;49801.50;;;-149.77;74.05
60055;BME280;45930;53.514;55.904;2022-12-18T02:35:34;49773.78;;;-149.77;74.76
60055;BME280;45930;53.514;55.904;2022-12-18T02:36:39;49793.59;;;-149.77;75.41
60055;BME280;45930;53.514;55.904;2022-12-18T02:37:43;49773.78;;;-149.77;75.82
60055;BME280;45930;53.514;55.904;2022-12-18T02:38:45;49809.44;;;-149.77;75.21
60055;BME280;45930;53.514;55.904;2022-12-18T02:39:48;49813.41;;;-149.77;74.94
60055;BME280;45930;53.514;55.904;2022-12-18T02:40:50;49773.78;;;-149.77;74.71
60055;BME280;45930;53.514;55.904;2022-12-18T02:41:52;49805.47;;;-149.77;75.73
60055;BME280;45930;53.514;55.904;2022-12-18T02:42:53;49811.41;;;-149.77;75.79
60055;BME280;45930;53.514;55.904;2022-12-18T02:43:59;49783.69;;;-149.77;74.90
60055;BME280;45930;53.514;55.904;2022-12-18T02:45:02;49797.56;;;-149.77;73.81
60055;BME280;45930;53.514;55.904;2022-12-18T02:46:36;49799.53;;;-149.77;74.32
60055;BME280;45930;53.514;55.904;2022-12-18T02:47:41;49775.75;;;-149.77;72.26
60055;BME280;45930;53.514;55.904;2022-12-18T02:48:42;49789.63;;;-149.77;70.80
60055;BME280;45930;53.514;55.904;2022-12-18T02:51:08;49789.63;;;-149.77;71.60
60055;BME280;45930;53.514;55.904;2022-12-18T02:52:31;49777.75;;;-149.77;70.88
60055;BME280;45930;53.514;55.904;2022-12-18T02:53:38;49773.78;;;-149.77;70.75
60055;BME280;45930;53.514;55.904;2022-12-18T02:59:34;49750.00;;;-149.77;70.78
60055;BME280;45930;53.514;55.904;2022-12-18T03:00:51;49755.94;;;-149.77;70.59
60055;BME280;45930;53.514;55.904;2022-12-18T03:02:07;49765.84;;;-149.77;70.76
60055;BME280;45930;53.514;55.904;2022-12-18T03:03:24;49771.78;;;-149.77;71.06
60055;BME280;45930;53.514;55.904;2022-12-18T03:04:38;49752.00;;;-149.77;71.74
60055;BME280;45930;53.514;55.904;2022-12-18T03:05:59;49763.88;;;-149.77;70.13
60055;BME280;45930;53.514;55.904;2022-12-18T03:07:05;49779.72;;;-149.77;69.23
60055;BME280;45930;53.514;55.904;2022-12-18T03:08:12;49761.88;;;-149.77;69.62
60055;BME280;45930;53.514;55.904;2022-12-18T03:09:27;49759.91;;;-149.77;68.99
60055;BME280;45930;53.514;55.904;2022-12-18T03:10:32;49769.81;;;-149.77;69.00
60055;BME280;45930;53.514;55.904;2022-12-18T03:11:38;49759.91;;;-149.77;69.46
60055;BME280;45930;53.514;55.904;2022-12-18T03:13:26;49755.94;;;-149.77;68.34
60055;BME280;45930;53.514;55.904;2022-12-18T03:14:30;49720.28;;;-149.77;66.56
60055;BME280;45930;53.514;55.904;2022-12-18T03:15:38;49734.16;;;-149.77;65.89
60055;BME280;45930;53.514;55.904;2022-12-18T03:16:41;49720.28;;;-149.77;65.94
60055;BME280;45930;53.514;55.904;2022-12-18T03:17:46;49704.44;;;-149.77;66.68
60055;BME280;45930;53.514;55.904;2022-12-18T03:18:56;49736.13;;;-149.77;66.86
60055;BME280;45930;53.514;55.904;2022-12-18T03:20:03;49720.28;;;-149.77;66.55
60055;BME280;45930;53.514;55.904;2022-12-18T03:21:06;49730.19;;;-149.77;68.54
60055;BME280;45930;53.514;55.904;2022-12-18T03:22:09;49765.84;;;-149.77;69.45
60055;BME280;45930;53.514;55.904;2022-12-18T03:23:15;49753.97;;;-149.77;69.83
60055;BME280;45930;53.514;55.904;2022-12-18T03:24:18;49761.88;;;-149.77;70.39
60055;BME280;45930;53.514;55.904;2022-12-18T03:25:21;49771.78;;;-149.77;70.68
60055;BME280;45930;53.514;55.904;2022-12-18T03:26:24;49779.72;;;-149.77;69.46
60055;BME280;45930;53.514;55.904;2022-12-18T03:27:28;49740.09;;;-149.77;68.37
60055;BME280;45930;53.514;55.904;2022-12-18T03:28:34;49753.97;;;-149.77;68.54
60055;BME280;45930;53.514;55.904;2022-12-18T03:29:47;49736.13;;;-149.77;69.32
60055;BME280;45930;53.514;55.904;2022-12-18T03:30:55;49757.94;;;-149.77;69.22
60055;BME280;45930;53.514;55.904;2022-12-18T03:32:27;49755.94;;;-149.77;70.07
60055;BME280;45930;53.514;55.904;2022-12-18T03:33:42;49763.88;;;-149.77;69.81
60055;BME280;45930;53.514;55.904;2022-12-18T03:34:47;49748.03;;;-149.77;70.26
60055;BME280;45930;53.514;55.904;2022-12-18T03:35:50;49757.94;;;-149.77;69.73
60055;BME280;45930;53.514;55.904;2022-12-18T03:36:51;49781.69;;;-149.77;69.67
60055;BME280;45930;53.514;55.904;2022-12-18T03:37:52;49777.75;;;-149.77;69.91
60055;BME280;45930;53.514;55.904;2022-12-18T03:38:53;49753.97;;;-149.77;69.42
60055;BME280;45930;53.514;55.904;2022-12-18T03:39:53;49748.03;;;-149.77;68.52
60055;BME280;45930;53.514;55.904;2022-12-18T03:43:30;49769.81;;;-149.77;69.34
60055;BME280;45930;53.514;55.904;2022-12-18T03:45:54;49744.06;;;-149.77;70.68
60055;BME280;45930;53.514;55.904;2022-12-18T03:49:31;49752.00;;;-149.77;72.46
60055;BME280;45930;53.514;55.904;2022-12-18T03:51:09;49783.69;;;-149.77;72.90
60055;BME280;45930;53.514;55.904;2022-12-18T03:52:14;49769.81;;;-149.77;73.90
60055;BME280;45930;53.514;55.904;2022-12-18T03:54:25;49753.97;;;-149.77;73.20
60055;BME280;45930;53.514;55.904;2022-12-18T03:55:30;49783.69;;;-149.77;72.45
60055;BME280;45930;53.514;55.904;2022-12-18T03:56:38;49777.75;;;-149.77;72.06
60055;BME280;45930;53.514;55.904;2022-12-18T03:57:41;49752.00;;;-149.77;72.26
60055;BME280;45930;53.514;55.904;2022-12-18T03:58:43;49767.84;;;-149.77;72.79
60055;BME280;45930;53.514;55.904;2022-12-18T03:59:47;49771.78;;;-149.77;72.71
60055;BME280;45930;53.514;55.904;2022-12-18T04:00:52;49771.78;;;-149.77;72.56
60055;BME280;45930;53.514;55.904;2022-12-18T04:01:55;49769.81;;;-149.77;72.88
60055;BME280;45930;53.514;55.904;2022-12-18T04:03:00;49769.81;;;-149.77;74.17
60055;BME280;45930;53.514;55.904;2022-12-18T04:04:03;49783.69;;;-149.77;72.66
60055;BME280;45930;53.514;55.904;2022-12-18T04:05:05;49777.75;;;-149.77;71.66
60055;BME280;45930;53.514;55.904;2022-12-18T04:06:07;49748.03;;;-149.77;71.42
60055;BME280;45930;53.514;55.904;2022-12-18T04:07:09;49761.88;;;-149.77;72.59
60055;BME280;45930;53.514;55.904;2022-12-18T04:08:10;49775.75;;;-149.77;73.79
60055;BME280;45930;53.514;55.904;2022-12-18T04:09:12;49767.84;;;-149.77;73.15
60055;BME280;45930;53.514;55.904;2022-12-18T04:10:14;49761.88;;;-149.77;72.44
60055;BME280;45930;53.514;55.904;2022-12-18T04:11:16;49773.78;;;-149.77;72.29
60055;BME280;45930;53.514;55.904;2022-12-18T04:12:17;49757.94;;;-149.77;72.61
60055;BME280;45930;53.514;55.904;2022-12-18T04:13:28;49753.97;;;-149.77;69.31
60055;BME280;45930;53.514;55.904;2022-12-18T04:14:29;49730.19;;;-149.77;68.08
60055;BME280;45930;53.514;55.904;2022-12-18T04:15:33;49753.97;;;-149.77;69.31
60055;BME280;45930;53.514;55.904;2022-12-18T04:16:35;49732.19;;;-149.77;69.61
60055;BME280;45930;53.514;55.904;2022-12-18T04:17:36;49757.94;;;-149.77;69.17
60055;BME280;45930;53.514;55.904;2022-12-18T04:18:37;49757.94;;;-149.77;69.44
60055;BME280;45930;53.514;55.904;2022-12-18T04:19:38;49726.22;;;-149.77;69.19
60055;BME280;45930;53.514;55.904;2022-12-18T04:20:38;49753.97;;;-149.77;68.99
60055;BME280;45930;53.514;55.904;2022-12-18T04:21:39;49746.03;;;-149.77;69.32
60055;BME280;45930;53.514;55.904;2022-12-18T04:22:40;49746.03;;;-149.77;68.95
60055;BME280;45930;53.514;55.904;2022-12-18T04:23:41;49765.84;;;-149.77;67.52
60055;BME280;45930;53.514;55.904;2022-12-18T04:24:41;49740.09;;;-149.77;68.11
60055;BME280;45930;53.514;55.904;2022-12-18T04:25:42;49718.31;;;-149.77;67.49
60055;BME280;45930;53.514;55.904;2022-12-18T04:26:43;49722.28;;;-149.77;65.59
60055;BME280;45930;53.514;55.904;2022-12-18T04:27:44;49752.00;;;-149.77;67.33
60055;BME280;45930;53.514;55.904;2022-12-18T04:28:44;49704.44;;;-149.77;66.97
60055;BME280;45930;53.514;55.904;2022-12-18T04:29:45;49728.22;;;-149.77;67.15
60055;BME280;45930;53.514;55.904;2022-12-18T04:30:46;49704.44;;;-149.77;66.53
60055;BME280;45930;53.514;55.904;2022-12-18T04:31:47;49738.13;;;-149.77;67.45
60055;BME280;45930;53.514;55.904;2022-12-18T04:32:47;49716.31;;;-149.77;67.89
60055;BME280;45930;53.514;55.904;2022-12-18T04:33:48;49716.31;;;-149.77;67.24
60055;BME280;45930;53.514;55.904;2022-12-18T04:34:49;49740.09;;;-149.77;65.99
60055;BME280;45930;53.514;55.904;2022-12-18T04:35:50;49712.38;;;-149.77;65.88
60055;BME280;45930;53.514;55.904;2022-12-18T04:36:51;49742.09;;;-149.77;65.28
60055;BME280;45930;53.514;55.904;2022-12-18T04:37:51;49702.47;;;-149.77;65.00
60055;BME280;45930;53.514;55.904;2022-12-18T04:38:52;49720.28;;;-149.77;65.69
60055;BME280;45930;53.514;55.904;2022-12-18T04:39:53;49736.13;;;-149.77;66.30
60055;BME280;45930;53.514;55.904;2022-12-18T04:40:54;49730.19;;;-149.77;66.70
60055;BME280;45930;53.514;55.904;2022-12-18T04:41:54;49720.28;;;-149.77;66.52
60055;BME280;45930;53.514;55.904;2022-12-18T04:42:55;49736.13;;;-149.77;66.63
60055;BME280;45930;53.514;55.904;2022-12-18T04:43:56;49714.34;;;-149.77;65.67
60055;BME280;45930;53.514;55.904;2022-12-18T04:44:56;49714.34;;;-149.77;64.96
60055;BME280;45930;53.514;55.904;2022-12-18T04:46:07;49702.47;;;-149.77;65.33
60055;BME280;45930;53.514;55.904;2022-12-18T04:47:08;49682.66;;;-149.77;64.27
60055;BME280;45930;53.514;55.904;2022-12-18T04:48:09;49706.41;;;-149.77;65.08
60055;BME280;45930;53.514;55.904;2022-12-18T04:49:10;49694.53;;;-149.77;65.19
60055;BME280;45930;53.514;55.904;2022-12-18T04:50:13;49714.34;;;-149.77;65.47
60055;BME280;45930;53.514;55.904;2022-12-18T04:51:14;49698.50;;;-149.77;65.82
60055;BME280;45930;53.514;55.904;2022-12-18T04:52:15;49710.38;;;-149.77;65.07
60055;BME280;45930;53.514;55.904;2022-12-18T04:53:15;49708.41;;;-149.77;64.78
60055;BME280;45930;53.514;55.904;2022-12-18T04:54:19;49722.28;;;-149.77;65.28
60055;BME280;45930;53.514;55.904;2022-12-18T04:55:20;49718.31;;;-149.77;64.97
60055;BME280;45930;53.514;55.904;2022-12-18T04:56:21;49722.28;;;-149.77;63.98
60055;BME280;45930;53.514;55.904;2022-12-18T04:57:22;49722.28;;;-149.77;64.29
60055;BME280;45930;53.514;55.904;2022-12-18T04:58:23;49688.59;;;-149.77;64.64
60055;BME280;45930;53.514;55.904;2022-12-18T04:59:24;49720.28;;;-149.77;64.73
60055;BME280;45930;53.514;55.904;2022-12-18T05:00:25;49710.38;;;-149.77;65.06
60055;BME280;45930;53.514;55.904;2022-12-18T05:01:25;49694.53;;;-149.77;63.63
60055;BME280;45930;53.514;55.904;2022-12-18T05:02:26;49710.38;;;-149.77;64.02
60055;BME280;45930;53.514;55.904;2022-12-18T05:03:27;49688.59;;;-149.77;64.34
60055;BME280;45930;53.514;55.904;2022-12-18T05:04:27;49672.75;;;-149.77;64.17
60055;BME280;45930;53.514;55.904;2022-12-18T05:05:28;49716.31;;;-149.77;64.61
60055;BME280;45930;53.514;55.904;2022-12-18T05:06:29;49726.22;;;-149.77;66.06
60055;BME280;45930;53.514;55.904;2022-12-18T05:07:30;49726.22;;;-149.77;66.88
60055;BME280;45930;53.514;55.904;2022-12-18T05:08:31;49704.44;;;-149.77;66.48
60055;BME280;45930;53.514;55.904;2022-12-18T05:09:32;49694.53;;;-149.77;65.80
60055;BME280;45930;53.514;55.904;2022-12-18T05:10:33;49708.41;;;-149.77;64.55
60055;BME280;45930;53.514;55.904;2022-12-18T05:11:34;49680.66;;;-149.77;64.10
60055;BME280;45930;53.514;55.904;2022-12-18T05:12:34;49726.22;;;-149.77;64.00
60055;BME280;45930;53.514;55.904;2022-12-18T05:13:55;49680.66;;;-149.77;64.10
60055;BME280;45930;53.514;55.904;2022-12-18T05:14:56;49714.34;;;-149.77;63.54
60055;BME280;45930;53.514;55.904;2022-12-18T05:15:57;49700.47;;;-149.77;63.07
60055;BME280;45930;53.514;55.904;2022-12-18T05:16:58;49700.47;;;-149.77;62.47
60055;BME280;45930;53.514;55.904;2022-12-18T05:17:59;49686.63;;;-149.77;62.28
60055;BME280;45930;53.514;55.904;2022-12-18T05:19:00;49704.44;;;-149.77;63.11
60055;BME280;45930;53.514;55.904;2022-12-18T05:20:01;49724.25;;;-149.77;63.69
60055;BME280;45930;53.514;55.904;2022-12-18T05:21:02;49686.63;;;-149.77;64.22
60055;BME280;45930;53.514;55.904;2022-12-18T05:22:03;49676.72;;;-149.77;63.11
60055;BME280;45930;53.514;55.904;2022-12-18T05:23:04;49694.53;;;-149.77;65.09
60055;BME280;45930;53.514;55.904;2022-12-18T05:24:05;49694.53;;;-149.77;64.66
60055;BME280;45930;53.514;55.904;2022-12-18T05:25:06;49682.66;;;-149.77;63.87
60055;BME280;45930;53.514;55.904;2022-12-18T05:26:07;49712.38;;;-149.77;63.17
60055;BME280;45930;53.514;55.904;2022-12-18T05:27:08;49710.38;;;-149.77;63.40
60055;BME280;45930;53.514;55.904;2022-12-18T05:28:08;49702.47;;;-149.77;62.25
60055;BME280;45930;53.514;55.904;2022-12-18T05:29:09;49710.38;;;-149.77;62.89
60055;BME280;45930;53.514;55.904;2022-12-18T05:30:13;49696.53;;;-149.77;61.56
60055;BME280;45930;53.514;55.904;2022-12-18T05:31:14;49664.81;;;-149.77;62.35
60055;BME280;45930;53.514;55.904;2022-12-18T05:32:15;49647.00;;;-149.77;62.46
60055;BME280;45930;53.514;55.904;2022-12-18T05:33:16;49690.56;;;-149.77;62.55
60055;BME280;45930;53.514;55.904;2022-12-18T05:34:17;49698.50;;;-149.77;62.26
60055;BME280;45930;53.514;55.904;2022-12-18T05:35:18;49714.34;;;-149.77;62.77
60055;BME280;45930;53.514;55.904;2022-12-18T05:36:18;49666.81;;;-149.77;63.43
60055;BME280;45930;53.514;55.904;2022-12-18T05:37:19;49674.72;;;-149.77;62.20
60055;BME280;45930;53.514;55.904;2022-12-18T05:38:22;49674.72;;;-149.77;62.84
60055;BME280;45930;53.514;55.904;2022-12-18T05:39:23;49708.41;;;-149.77;62.44
60055;BME280;45930;53.514;55.904;2022-12-18T05:40:24;49698.50;;;-149.77;62.51
60055;BME280;45930;53.514;55.904;2022-12-18T05:41:25;49666.81;;;-149.77;60.93
60055;BME280;45930;53.514;55.904;2022-12-18T05:42:25;49678.69;;;-149.77;62.63
60055;BME280;45930;53.514;55.904;2022-12-18T05:43:27;49668.78;;;-149.77;62.91
60055;BME280;45930;53.514;55.904;2022-12-18T05:44:31;49704.44;;;-149.77;62.36
60055;BME280;45930;53.514;55.904;2022-12-18T05:45:32;49674.72;;;-149.77;62.11
60055;BME280;45930;53.514;55.904;2022-12-18T05:46:33;49670.75;;;-149.77;61.56
60055;BME280;45930;53.514;55.904;2022-12-18T05:47:33;49684.63;;;-149.77;61.75
60055;BME280;45930;53.514;55.904;2022-12-18T05:48:34;49662.84;;;-149.77;61.59
60055;BME280;45930;53.514;55.904;2022-12-18T05:49:35;49668.78;;;-149.77;60.23
60055;BME280;45930;53.514;55.904;2022-12-18T05:50:37;49680.66;;;-149.77;60.63
60055;BME280;45930;53.514;55.904;2022-12-18T05:51:38;49688.59;;;-149.77;62.05
60055;BME280;45930;53.514;55.904;2022-12-18T05:52:38;49682.66;;;-149.77;63.46